Moosomin, Canada
Current Conditions -  °F | °C
As of 6:10 AM on Thursday 18 Dec 2014 (Local Time) from CYBR Reporting Station
Few Clouds Few Clouds  
Wind Chill: -17°   Ceiling: Unl
Heat Index: -6°   Visibility: 15mi
Dew Point: -9°   Wind: 5mph
Humidity: 84%   Direction: 70°ENE
Pressure: 30.15"   Gusts: NA
Location:  50.15°N, 101.67°W
Report Text: CYBR 181210Z 07004KT 15SM FEW002 M21/M23 A3015 RMK ST2 SLP255
Loading
Personal Weather Stations






























Interactive Weather Map New forecast layout! Learn more

10-Day Weather Forecast

Advertisements
Track Severe Weather on mobile